Home > Products > Valid Products > MTR

000
SAUS41 KCAR 012216
MTR40B
METAR K40B 012216Z AUTO 00000KT 10/07 A3017 RMK AO1 SLP224
     T00970072 53004





000
SAUS41 KCAR 012158
MTRGNR
METAR KGNR 012156Z AUTO 04003KT 12/09 A3015 RMK AO1 SLP216 T01220094





000
SAUS41 KCAR 012116
MTR40B
METAR K40B 012116Z AUTO 00000KT 13/06 A3016 RMK AO1 SLP219
     T01310063 56005





000
SAUS41 KCAR 012057
MTRGNR
METAR KGNR 012056Z AUTO 35004KT 13/09 A3014 RMK AO1 SLP211 T01280094
53001





000
SAUS41 KCAR 012016
MTR40B
METAR K40B 012016Z AUTO VRB04KT 15/05 A3016 RMK AO1 SLP220
     T01470052 57010





000
SAUS41 KCAR 011957
MTRGNR
METAR KGNR 011956Z AUTO 34005KT 13/09 A3013 RMK AO1 SLP208 T01280094





000
SAUS41 KCAR 011916
MTR40B
METAR K40B 011916Z AUTO VRB02KT 14/08 A3016 RMK AO1 SLP222
     T01410078 57016





000
SAUS41 KCAR 011857
MTRGNR
METAR KGNR 011856Z AUTO 02004KT 13/09 A3013 RMK AO1 SLP207 T01280094





000
SAUS41 KCAR 011816
MTR40B
METAR K40B 011816Z AUTO 00000KT 13/07 A3018 RMK AO1 SLP227
     T01270075 10129 20071 57015 60000





000
SAUS41 KCAR 011757
MTRGNR
METAR KGNR 011756Z AUTO 00000KT 12/10 A3014 RMK AO1 SLP211 T01220100
10133 20106 58010





000
SAUS41 KCAR 011716
MTR40B
METAR K40B 011716Z AUTO 00000KT 10/07 A3019 RMK AO1 SLP232
     T00980068 58007





000
SAUS41 KCAR 011657
MTRGNR
METAR KGNR 011656Z AUTO VRB03KT 13/10 A3015 RMK AO1 SLP215 T01280100





000
SAUS41 KCAR 011616
MTR40B
METAR K40B 011616Z AUTO VRB04KT 09/06 A3021 RMK AO1 SLP239
     T00890063 50003





000
SAUS41 KCAR 011557
MTRGNR
METAR KGNR 011556Z AUTO 00000KT 12/09 A3016 RMK AO1 SLP219 T01220089





000
SAUS41 KCAR 011516
MTR40B
METAR K40B 011516Z AUTO VRB02KT 09/06 A3022 RMK AO1 SLP243
     T00860060 51010 60000





000
SAUS41 KCAR 011457
MTRGNR
METAR KGNR 011456Z AUTO 10004KT 12/09 A3017 RMK AO1 SLP221 T01170094
51011





000
SAUS41 KCAR 011416
MTR40B
METAR K40B 011416Z AUTO VRB04KT 09/06 A3021 RMK AO1 SLP241
     T00860064 51014





000
SAUS41 KCAR 011357
MTRGNR
METAR KGNR 011356Z AUTO 03005KT 12/09 A3016 RMK AO1 SLP220 T01170094





000
SAUS41 KCAR 011316
MTR40B
METAR K40B 011316Z AUTO VRB02KT 08/07 A3020 RMK AO1 SLP237
     T00790070 52014 P0000





000
SAUS41 KCAR 011257
MTRGNR
METAR KGNR 011256Z AUTO 04003KT 11/09 A3015 RMK AO1 SLP215 T01110094





000
SAUS41 KCAR 011216
MTR40B
METAR K40B 011216Z AUTO VRB04KT 07/07 A3019 RMK AO1 SLP232
     T00720070 10082 20070 52014 70000





000
SAUS41 KCAR 011157
MTRGNR
METAR KGNR 011156Z AUTO 35004KT 11/09 A3013 RMK AO1 SLP209 T01060094
10117 20106 51015





000
SAUS41 KCAR 011116
MTR40B
METAR K40B 011116Z AUTO VRB03KT 07/07 A3017 RMK AO1 SLP226
     T00700069 52009





000
SAUS41 KCAR 011057
MTRGNR
METAR KGNR 011056Z AUTO 00000KT 11/09 A3012 RMK AO1 SLP206 T01110094





000
SAUS41 KCAR 011016
MTR40B
METAR K40B 011016Z AUTO 00000KT 07/07 A3016 RMK AO1 SLP222
     T00730071 52010





000
SAUS41 KCAR 010957
MTRGNR
METAR KGNR 010956Z AUTO 36003KT 11/10 A3010 RMK AO1 SLP199 T01110100





000
SAUS41 KCAR 010916
MTR40B
METAR K40B 010916Z AUTO VRB03KT 08/07 A3015 RMK AO1 SLP217
     T00760073 52006





000
SAUS41 KCAR 010857
MTRGNR
METAR KGNR 010856Z AUTO 05004KT 11/10 A3009 RMK AO1 SLP193 T01110100
55001





000
SAUS41 KCAR 010816
MTR40B
METAR K40B 010816Z AUTO 00000KT 08/08 A3014 RMK AO1 SLP215
     T00790076 53004





000
SAUS41 KCAR 010757
MTRGNR
METAR KGNR 010756Z AUTO 04003KT 11/11 A3008 RMK AO1 SLP192 T01110106





000
SAUS41 KCAR 010716
MTR40B
METAR K40B 010716Z AUTO 00000KT 08/08 A3013 RMK AO1 SLP211
     T00800078 51005





000
SAUS41 KCAR 010658
MTRGNR
METAR KGNR 010656Z AUTO 05003KT 11/10 A3008 RMK AO1 SLP192 T01110100





000
SAUS41 KCAR 010616
MTR40B
METAR K40B 010616Z AUTO 00000KT 08/08 A3013 RMK AO1 SLP210
     T00810079 10087 20080 53002





000
SAUS41 KCAR 010557
MTRGNR
METAR KGNR 010556Z AUTO 01003KT 12/10 A3009 RMK AO1 SLP194 T01170100
10122 20117 51003





000
SAUS41 KCAR 010516
MTR40B
METAR K40B 010516Z AUTO 00000KT 08/08 A3013 RMK AO1 SLP211
     T00810079 401000052 53005





000
SAUS41 KCAR 010458
MTRGNR
METAR KGNR 010456Z AUTO 00000KT 12/09 A3009 RMK AO1 SLP193 T01170094
401500067





000
SAUS41 KCAR 010416
MTR40B
METAR K40B 010416Z AUTO VRB02KT 08/08 A3011 RMK AO1 SLP205
     T00820080 54001





000
SAUS41 KCAR 010357
MTRGNR
METAR KGNR 010356Z AUTO 11005KT 12/09 A3009 RMK AO1 SLP193 T01170094





000
SAUS41 KCAR 010316
MTR40B
METAR K40B 010316Z AUTO 00000KT 08/08 A3012 RMK AO1 SLP207
     T00830081 51006





000
SAUS41 KCAR 010257
MTRGNR
METAR KGNR 010256Z AUTO 00000KT 12/10 A3008 RMK AO1 SLP192 T01170100
52006





000
SAUS41 KCAR 010216
MTR40B
METAR K40B 010216Z AUTO VRB02KT 08/08 A3012 RMK AO1 SLP206
     T00830081 51007





000
SAUS41 KCAR 010157
MTRGNR
METAR KGNR 010156Z AUTO 11004KT 12/10 A3007 RMK AO1 SLP191 T01170100





000
SAUS41 KCAR 010116
MTR40B
METAR K40B 010116Z AUTO VRB03KT 09/08 A3012 RMK AO1 SLP207
     T00850083 52013





000
SAUS41 KCAR 010057
MTRGNR
METAR KGNR 010056Z AUTO 13003KT 12/10 A3007 RMK AO1 SLP189 T01170100





000
SAUS41 KCAR 010016
MTR40B
METAR K40B 010016Z AUTO 00000KT 09/08 A3010 RMK AO1 SLP202
     T00870085 10100 20087 52010





000
SAUS41 KCAR 302357
MTRGNR
METAR KGNR 302356Z AUTO 11003KT 12/10 A3006 RMK AO1 SLP187 T01220100
10150 20106 53014





000
SAUS41 KCAR 302316
MTR40B
METAR K40B 302316Z AUTO 00000KT 09/09 A3009 RMK AO1 SLP199
     T00880085 53009





000
SAUS41 KCAR 302257
MTRGNR
METAR KGNR 302256Z AUTO 00000KT 11/09 A3005 RMK AO1 SLP184 T01110094





000
SAUS41 KCAR 302216
MTR40B
METAR K40B 302216Z AUTO 00000KT 09/09 A3008 RMK AO1 SLP194
     T00900086 52006





000
SAUS41 KCAR 302157
MTRGNR
METAR KGNR 302156Z AUTO 00000KT 13/10 A3003 RMK AO1 SLP176 T01280100





000
SAUS41 KCAR 302116
MTR40B
METAR K40B 302116Z AUTO VRB03KT 09/09 A3007 RMK AO1 SLP193
     T00930088 52004





000
SAUS41 KCAR 302057
MTRGNR
METAR KGNR 302056Z AUTO 00000KT 14/10 A3002 RMK AO1 SLP172 T01440100
56006





000
SAUS41 KCAR 302016
MTR40B
METAR K40B 302016Z AUTO VRB02KT 10/09 A3007 RMK AO1 SLP191
     T00970089 55001





000
SAUS41 KCAR 301957
MTRGNR
METAR KGNR 301956Z AUTO 00000KT 15/10 A3002 RMK AO1 SLP171 T01500100





000
SAUS41 KCAR 301916
MTR40B
METAR K40B 301916Z AUTO 00000KT 10/09 A3006 RMK AO1 SLP189
     T01000090 57003





000
SAUS41 KCAR 301857
MTRGNR
METAR KGNR 301856Z AUTO 17005KT 14/09 A3002 RMK AO1 SLP174 T01440094





000
SAUS41 KCAR 301816
MTR40B
METAR K40B 301816Z AUTO 00000KT 09/08 A3006 RMK AO1 SLP190
     T00940084 10097 20055 56008 60000





000
SAUS41 KCAR 301757
MTRGNR
METAR KGNR 301756Z AUTO 18003KT 13/09 A3004 RMK AO1 SLP179 T01330094
10133 20067 58005





000
SAUS41 KCAR 301716
MTR40B
METAR K40B 301716Z AUTO VRB04KT 09/08 A3007 RMK AO1 SLP193
     T00930082 56008





000
SAUS41 KCAR 301658
MTRGNR
METAR KGNR 301656Z AUTO VRB03KT 12/09 A3005 RMK AO1 SLP182 T01220089





000
SAUS41 KCAR 301616
MTR40B
METAR K40B 301616Z AUTO VRB02KT 09/08 A3007 RMK AO1 SLP194
     T00920081 58006





000
SAUS41 KCAR 301557
MTRGNR
METAR KGNR 301556Z AUTO VRB04KT 12/09 A3005 RMK AO1 SLP182 T01220089





000
SAUS41 KCAR 301516
MTR40B
METAR K40B 301516Z AUTO 00000KT 08/07 A3008 RMK AO1 SLP199
     T00760070 57003 60000





000
SAUS41 KCAR 301457
MTRGNR
METAR KGNR 301456Z AUTO 00000KT 11/08 A3005 RMK AO1 SLP185 T01060083
58003





000
SAUS41 KCAR 301416
MTR40B
METAR K40B 301416Z AUTO VRB03KT 07/07 A3009 RMK AO1 SLP202
     T00720070 54001





000
SAUS41 KCAR 301357
MTRGNR
METAR KGNR 301356Z AUTO 11005KT 08/08 A3006 RMK AO1 SLP189 T00830078





000
SAUS41 KCAR 301316
MTR40B
METAR K40B 301316Z AUTO 00000KT 06/06 A3009 RMK AO1 SLP201
     T00600058 50002 P0000





000
SAUS41 KCAR 301257
MTRGNR
METAR KGNR 301256Z AUTO VRB03KT 08/07 A3006 RMK AO1 SLP190 T00780072





000
SAUS41 KCAR 301216
MTR40B
METAR K40B 301216Z AUTO VRB03KT 06/05 A3009 RMK AO1 SLP203
     T00560054 10057 20052 52004 60000 70009





000
SAUS41 KCAR 301157
MTRGNR
METAR KGNR 301156Z AUTO 00000KT 07/07 A3006 RMK AO1 SLP190 T00720067
10072 20067 53004





000
SAUS41 KCAR 301116
MTR40B
METAR K40B 301116Z AUTO VRB04KT 05/05 A3009 RMK AO1 SLP202
     T00520051 53005





000
SAUS41 KCAR 301057
MTRGNR
METAR KGNR 301056Z AUTO 12004KT 07/06 A3006 RMK AO1 SLP188 T00670061





000
SAUS41 KCAR 301016
MTR40B
METAR K40B 301016Z AUTO VRB04KT 05/05 A3008 RMK AO1 SLP198
     T00520050 54000





000
SAUS41 KCAR 300957
MTRGNR
METAR KGNR 300956Z AUTO 13003KT 07/06 A3005 RMK AO1 SLP185 T00670061





000
SAUS41 KCAR 300916
MTR40B
METAR K40B 300916Z AUTO VRB05KT 05/05 A3008 RMK AO1 SLP197
     T00530050 57003 60000





000
SAUS41 KCAR 300857
MTRGNR
METAR KGNR 300856Z AUTO 10006KT 07/06 A3005 RMK AO1 SLP186 T00670061
58004





000
SAUS41 KCAR 300816
MTR40B
METAR K40B 300816Z AUTO VRB04KT 05/05 A3008 RMK AO1 SLP197
     T00550051 57005





000
SAUS41 KCAR 300757
MTRGNR
METAR KGNR 300756Z AUTO 00000KT 07/06 A3006 RMK AO1 SLP189 T00670061





000
SAUS41 KCAR 300716
MTR40B
METAR K40B 300716Z AUTO VRB05KT 06/05 A3009 RMK AO1 SLP198
     T00550053 57005 P0000





000
SAUS41 KCAR 300657
MTRGNR
METAR KGNR 300656Z AUTO 11006KT 07/06 A3006 RMK AO1 SLP188 T00670061





000
SAUS41 KCAR 300616
MTR40B
METAR K40B 300616Z AUTO VRB04KT 06/05 A3009 RMK AO1 SLP199
     T00570053 10073 20056 56008





000
SAUS41 KCAR 300557
MTRGNR
METAR KGNR 300556Z AUTO 11006KT 07/06 A3006 RMK AO1 SLP188 T00720061
10083 20072 56007





000
SAUS41 KCAR 300516
MTR40B
METAR K40B 300516Z AUTO VRB04KT 06/06 A3009 RMK AO1 SLP201
     T00610057 401600061 57007





000
SAUS41 KCAR 300500
MTRGNR
METAR KGNR 300456Z AUTO 11006KT 07/07 A3007 RMK AO1 SLP188 T00720067
401780072





000
SAUS41 KCAR 300416
MTR40B
METAR K40B 300416Z AUTO VRB06G13KT 07/06 A3010 RMK AO1 SLP202
     T00650061 58006





000
SAUS41 KCAR 300357
MTRGNR
METAR KGNR 300356Z AUTO 10008KT 07/07 A3008 RMK AO1 SLP192 T00720067





000
SAUS41 KCAR 300316
MTR40B
METAR K40B 300316Z AUTO 08007KT 040V120 07/06 A3011 RMK AO1 SLP207
     T00680064 57002





000
SAUS41 KCAR 300257
MTRGNR
METAR KGNR 300256Z AUTO 11007KT 08/07 A3009 RMK AO1 SLP193 T00780067
50003





000
SAUS41 KCAR 300216
MTR40B
METAR K40B 300216Z AUTO VRB04KT 07/06 A3012 RMK AO1 SLP207
     T00680063 50002





000
SAUS41 KCAR 300157
MTRGNR
METAR KGNR 300156Z AUTO 10008KT 08/07 A3009 RMK AO1 SLP195 T00780067





000
SAUS41 KCAR 300116
MTR40B
METAR K40B 300116Z AUTO VRB04KT 07/06 A3012 RMK AO1 SLP207
     T00690063 54000





000
SAUS41 KCAR 300057
MTRGNR
METAR KGNR 300056Z AUTO 11012G19KT 08/07 A3009 RMK AO1 SLP194
T00830067





000
SAUS41 KCAR 300016
MTR40B
METAR K40B 300016Z AUTO 08007G14KT 07/07 A3012 RMK AO1 SLP207
     T00730065 10089 20073 54000 P0001 60005





000
SAUS41 KCAR 292357
MTRGNR
METAR KGNR 292356Z AUTO 10014G20KT 08/07 A3008 RMK AO1 SLP191
T00830067 10122 20083 50002





000
SAUS41 KCAR 292316
MTR40B
METAR K40B 292316Z AUTO VRB06G12KT 07/07 A3011 RMK AO1 SLP204
     T00740069 54000





000
SAUS41 KCAR 292257
MTRGNR
METAR KGNR 292256Z AUTO 11010KT 09/07 A3009 RMK AO1 SLP194 T00890067





000
SAUS41 KCAR 292216
MTR40B
METAR K40B 292216Z AUTO VRB05G12KT 08/07 A3011 RMK AO1 SLP205
     T00770074 54001 P0002





000
SAUS41 KCAR 292157
MTRGNR
METAR KGNR 292156Z AUTO 10009KT 09/07 A3009 RMK AO1 SLP193 T00940072





000
SAUS41 KCAR 292116
MTR40B
METAR K40B 292116Z AUTO VRB04KT 08/07 A3012 RMK AO1 SLP205
     T00760073 55004 60002





000
SAUS41 KCAR 292058
MTRGNR
METAR KGNR 292056Z AUTO 10009KT 10/08 A3007 RMK AO1 SLP188 T01000078
51006





000
SAUS41 KCAR 292016
MTR40B
METAR K40B 292016Z AUTO VRB05KT 08/08 A3011 RMK AO1 SLP203
     T00820077 56008 P0001





000
SAUS41 KCAR 291957
MTRGNR
METAR KGNR 291956Z AUTO 10012G18KT 11/08 A3007 RMK AO1 SLP187
T01060083





000
SAUS41 KCAR 291916
MTR40B
METAR K40B 291916Z AUTO VRB04KT 09/08 A3011 RMK AO1 SLP202
     T00870083 58010 P0001





000
SAUS41 KCAR 291857
MTRGNR
METAR KGNR 291856Z AUTO 10012G16KT 11/08 A3007 RMK AO1 SLP184
T01110083





000
SAUS41 KCAR 291816
MTR40B
METAR K40B 291816Z AUTO VRB05KT 09/08 A3013 RMK AO1 SLP207
     T00860083 10107 20083 50001 P0002 60004





000
SAUS41 KCAR 291757
MTRGNR
METAR KGNR 291756Z AUTO 09009KT 12/09 A3006 RMK AO1 SLP180 T01220089
10167 20122 51001





000
SAUS41 KCAR 291716
MTR40B
METAR K40B 291716Z AUTO VRB04KT 08/08 A3014 RMK AO1 SLP209
     T00850080 50003 P0001





000
SAUS41 KCAR 291657
MTRGNR
METAR KGNR 291656Z AUTO 11013G18KT 13/10 A3005 RMK AO1 SLP178
T01330100





000
SAUS41 KCAR 291616
MTR40B
METAR K40B 291616Z AUTO VRB04KT 09/08 A3014 RMK AO1 SLP209
     T00850078 52007 P0001





000
SAUS41 KCAR 291557
MTRGNR
METAR KGNR 291556Z AUTO 10011KT 14/12 A3006 RMK AO1 SLP180 T01440117





000
SAUS41 KCAR 291516
MTR40B
METAR K40B 291516Z AUTO VRB04KT 09/06 A3013 RMK AO1 SLP206
     T00920059 51009 60000





000
SAUS41 KCAR 291457
MTRGNR
METAR KGNR 291456Z AUTO 11007KT 16/12 A3005 RMK AO1 SLP177 T01560122
51009





000
SAUS41 KCAR 291416
MTR40B
METAR K40B 291416Z AUTO VRB04KT 10/06 A3013 RMK AO1 SLP204
     T00970056 52011 P0000





000
SAUS41 KCAR 291357
MTRGNR
METAR KGNR 291356Z AUTO 05005KT 17/12 A3005 RMK AO1 SLP173 T01670122





000
SAUS41 KCAR 291316
MTR40B
METAR K40B 291316Z AUTO VRB04G12KT 10/06 A3012 RMK AO1 SLP200
     T00990060 51020





000
SAUS41 KCAR 291257
MTRGNR
METAR KGNR 291256Z AUTO 05007KT 16/12 A3004 RMK AO1 SLP172 T01560122





000
SAUS41 KCAR 291216
MTR40B
METAR K40B 291216Z AUTO VRB02KT 11/08 A3011 RMK AO1 SLP195
     T01070075 10160 20106 51027 70000





000
SAUS41 KCAR 291157
MTRGNR
METAR KGNR 291156Z AUTO 03005KT 15/12 A3002 RMK AO1 SLP166 T01500122
10172 20139 53017





000
SAUS41 KCAR 291116
MTR40B
METAR K40B 291116Z AUTO VRB04G10KT 11/09 A3010 RMK AO1 SLP191
     T01150091 53033





000
SAUS41 KCAR 291057
MTRGNR
METAR KGNR 291056Z AUTO 00000KT 14/12 A3001 RMK AO1 SLP161 T01390117





000
SAUS41 KCAR 291016
MTR40B
METAR K40B 291016Z AUTO VRB04KT 13/10 A3005 RMK AO1 SLP176
     T01270099 53026





000
SAUS41 KCAR 290957
MTRGNR
METAR KGNR 290956Z AUTO 33008KT 15/12 A2998 RMK AO1 SLP151 T01500117





000
SAUS41 KCAR 290916
MTR40B
METAR K40B 290916Z AUTO 02007G14KT 350V070 14/11 A3002 RMK AO1
     SLP164 T01410108 53020





000
SAUS41 KCAR 290857
MTRGNR
METAR KGNR 290856Z AUTO 34003KT 16/12 A2997 RMK AO1 SLP145 T01560117
53007





000
SAUS41 KCAR 290816
MTR40B
METAR K40B 290816Z AUTO VRB02KT 15/12 A2999 RMK AO1 SLP153
     T01520117 53015





000
SAUS41 KCAR 290757
MTRGNR
METAR KGNR 290756Z AUTO 36005KT 14/11 A2995 RMK AO1 SLP137 T01440111





000
SAUS41 KCAR 290716
MTR40B
METAR K40B 290716Z AUTO VRB03KT 16/12 A2998 RMK AO1 SLP145
     T01570121 51016





000
SAUS41 KCAR 290657
MTRGNR
METAR KGNR 290656Z AUTO 33008KT 17/11 A2994 RMK AO1 SLP134 T01670111





000
SAUS41 KCAR 290616
MTR40B
METAR K40B 290616Z AUTO 00000KT 15/12 A2996 RMK AO1 SLP139
     T01460123 10177 20136 53010 60000





000
SAUS41 KCAR 290558
MTRGNR
METAR KGNR 290556Z AUTO 31006KT 17/11 A2995 RMK AO1 SLP137 T01720111
10200 20167 56006





000
SAUS41 KCAR 290516
MTR40B
METAR K40B 290516Z AUTO 00000KT 14/12 A2995 RMK AO1 SLP134
     T01380116 402670118 53003





000
SAUS41 KCAR 290458
MTRGNR
METAR KGNR 290456Z AUTO VRB05KT 18/12 A2995 RMK AO1 SLP138 T01780117
402670128





000
SAUS41 KCAR 290416
MTR40B
METAR K40B 290416Z AUTO 00000KT 16/12 A2993 RMK AO1 SLP126
     T01570121 57003





000
SAUS41 KCAR 290357
MTRGNR
METAR KGNR 290356Z AUTO VRB04KT 18/13 A2996 RMK AO1 SLP141 T01780128





000
SAUS41 KCAR 290316
MTR40B
METAR K40B 290316Z AUTO 00000KT 15/13 A2993 RMK AO1 SLP126
     T01490125 57002 60000





000
SAUS41 KCAR 290257
MTRGNR
METAR KGNR 290256Z AUTO VRB03KT 18/14 A2997 RMK AO1 SLP144 T01780139
56004





000
SAUS41 KCAR 290216
MTR40B
METAR K40B 290216Z AUTO 00000KT 15/13 A2994 RMK AO1 SLP128
     T01480132 52002





000
SAUS41 KCAR 290157
MTRGNR
METAR KGNR 290156Z AUTO 32007KT 19/14 A2997 RMK AO1 SLP145 T01890139





000
SAUS41 KCAR 290116
MTR40B
METAR K40B 290116Z AUTO 00000KT 16/13 A2994 RMK AO1 SLP126
     T01640132 50005 P0000





000
SAUS41 KCAR 290057
MTRGNR
METAR KGNR 290056Z AUTO 32003KT 19/14 A2997 RMK AO1 SLP146 T01890139





000
SAUS41 KCAR 290016
MTR40B
METAR K40B 290016Z AUTO 00000KT 16/12 A2994 RMK AO1 SLP127
     T01590122 10267 20159 53005





000
SAUS41 KCAR 282357
MTRGNR
METAR KGNR 282356Z AUTO 32005KT 20/14 A2998 RMK AO1 SLP149 T02000139
10267 20200 53007





000
SAUS41 KCAR 282316
MTR40B
METAR K40B 282316Z AUTO 00000KT 20/12 A2993 RMK AO1 SLP125
     T01950123 53004





000
SAUS41 KCAR 282257
MTRGNR
METAR KGNR 282256Z AUTO 33005KT 21/14 A2996 RMK AO1 SLP144 T02060139





    US Dept of Commerce
    National Oceanic and Atmospheric Administration
    National Weather Service
    1325 East West Highway
    Silver Spring, MD 20910
    Page Author: NWS Internet Services Team
Disclaimer
Information Quality
Credits
Glossary
Privacy Policy
Freedom of Information Act (FOIA)
About Us
Career Opportunities